Terminal Aerodrome Forecast
Issued by NWS Cleveland, OH

Home | Current Version | Previous Version | Graphics & Text | Print | Product List | Glossary On
Versions: 1 2 3 4 5 6 7 8 9 10 11 12 13 14 15 16 17 18 19
000
FTUS41 KCLE 200527
TAFMFD
TAF
KMFD 200527Z 2006/2106 20015G25KT P6SM SCT070 BKN110
     FM201500 20020G30KT P6SM BKN050
     FM210000 18016G24KT P6SM SCT050 BKN200=

USA.gov is the U.S. government's official web portal to all federal, state and local government web resources and services.